Map

Track Data

SID SEASON NUMBER BASIN SUBBASIN NAME ISO_TIME NATURE LAT LON WMO_WIND WMO_PRES WMO_AGENCY TRACK_TYPE DIST2LAND LANDFALL IFLAG USA_AGENCY USA_ATCF_ID USA_LAT USA_LON USA_RECORD USA_STATUS USA_WIND USA_PRES USA_SSHS USA_R34_NE USA_R34_SE USA_R34_SW USA_R34_NW USA_R50_NE USA_R50_SE USA_R50_SW USA_R50_NW USA_R64_NE USA_R64_SE USA_R64_SW USA_R64_NW USA_POCI USA_ROCI USA_RMW USA_EYE TOKYO_LAT TOKYO_LON TOKYO_GRADE TOKYO_WIND TOKYO_PRES TOKYO_R50_DIR TOKYO_R50_LONG TOKYO_R50_SHORT TOKYO_R30_DIR TOKYO_R30_LONG TOKYO_R30_SHORT TOKYO_LAND CMA_LAT CMA_LON CMA_CAT CMA_WIND CMA_PRES HKO_LAT HKO_LON HKO_CAT HKO_WIND HKO_PRES NEWDELHI_LAT NEWDELHI_LON NEWDELHI_GRADE NEWDELHI_WIND NEWDELHI_PRES NEWDELHI_CI NEWDELHI_DP NEWDELHI_POCI REUNION_LAT REUNION_LON REUNION_TYPE REUNION_WIND REUNION_PRES REUNION_TNUM REUNION_CI REUNION_RMW REUNION_R34_NE REUNION_R34_SE REUNION_R34_SW REUNION_R34_NW REUNION_R50_NE REUNION_R50_SE REUNION_R50_SW REUNION_R50_NW REUNION_R64_NE REUNION_R64_SE REUNION_R64_SW REUNION_R64_NW BOM_LAT BOM_LON BOM_TYPE BOM_WIND BOM_PRES BOM_TNUM BOM_CI BOM_RMW BOM_R34_NE BOM_R34_SE BOM_R34_SW BOM_R34_NW BOM_R50_NE BOM_R50_SE BOM_R50_SW BOM_R50_NW BOM_R64_NE BOM_R64_SE BOM_R64_SW BOM_R64_NW BOM_ROCI BOM_POCI BOM_EYE BOM_POS_METHOD BOM_PRES_METHOD NADI_LAT NADI_LON NADI_CAT NADI_WIND NADI_PRES WELLINGTON_LAT WELLINGTON_LON WELLINGTON_WIND WELLINGTON_PRES DS824_LAT DS824_LON DS824_STAGE DS824_WIND DS824_PRES TD9636_LAT TD9636_LON TD9636_STAGE TD9636_WIND TD9636_PRES TD9635_LAT TD9635_LON TD9635_WIND TD9635_PRES TD9635_ROCI NEUMANN_LAT NEUMANN_LON NEUMANN_CLASS NEUMANN_WIND NEUMANN_PRES MLC_LAT MLC_LON MLC_CLASS MLC_WIND MLC_PRES USA_GUST BOM_GUST BOM_GUST_PER REUNION_GUST REUNION_GUST_PER USA_SEAHGT USA_SEARAD_NE USA_SEARAD_SE USA_SEARAD_SW USA_SEARAD_NW STORM_SPEED STORM_DIR
1892041S14059 1892 7 SI MM NOT_NAMED 1892-02-10 00:00:00 TS -14.1000 59.2000 main 690 663 _________O____ -1 -14.1000 59.2000 TC 6 232
1892041S14059 1892 7 SI MM NOT_NAMED 1892-02-10 03:00:00 TS -14.3001 58.9401 main 661 635 _________P____ -1 -14.3001 58.9401 TC 6 230
1892041S14059 1892 7 SI MM NOT_NAMED 1892-02-10 06:00:00 TS -14.5000 58.7000 main 635 610 _________O____ -1 -14.5000 58.7000 TC 6 227
1892041S14059 1892 7 SI MM NOT_NAMED 1892-02-10 09:00:00 TS -14.7000 58.4924 main 610 585 _________P____ -1 -14.7000 58.4924 TC 6 224
1892041S14059 1892 7 SI MM NOT_NAMED 1892-02-10 12:00:00 TS -14.9000 58.3000 main 585 561 _________O____ -1 -14.9000 58.3000 TC 6 224
1892041S14059 1892 7 SI MM NOT_NAMED 1892-02-10 15:00:00 TS -15.1000 58.0925 main 561 537 _________P____ -1 -15.1000 58.0925 TC 6 224
1892041S14059 1892 7 SI MM NOT_NAMED 1892-02-10 18:00:00 TS -15.3000 57.9000 main 537 514 _________O____ -1 -15.3000 57.9000 TC 5 221
1892041S14059 1892 7 SI MM NOT_NAMED 1892-02-10 21:00:00 TS -15.4774 57.7573 main 514 492 _________P____ -1 -15.4774 57.7573 TC 5 216
1892041S14059 1892 7 SI MM NOT_NAMED 1892-02-11 00:00:00 TS -15.7000 57.6000 main 492 458 _________O____ -1 -15.7000 57.6000 TC 7 215
1892041S14059 1892 7 SI MM NOT_NAMED 1892-02-11 03:00:00 TS -16.0200 57.3650 main 458 416 _________P____ -1 -16.0200 57.3650 TC 9 215
1892041S14059 1892 7 SI MM NOT_NAMED 1892-02-11 06:00:00 TS -16.4000 57.1000 main 416 374 _________O____ -1 -16.4000 57.1000 TC 9 213
1892041S14059 1892 7 SI MM NOT_NAMED 1892-02-11 09:00:00 TS -16.8000 56.8350 main 376 338 _________P____ -1 -16.8000 56.8350 TC 9 211
1892041S14059 1892 7 SI MM NOT_NAMED 1892-02-11 12:00:00 TS -17.2000 56.6000 main 338 309 _________O____ -1 -17.2000 56.6000 TC 8 207
1892041S14059 1892 7 SI MM NOT_NAMED 1892-02-11 15:00:00 TS -17.5499 56.4348 main 313 276 _________P____ -1 -17.5499 56.4348 TC 8 202
1892041S14059 1892 7 SI MM NOT_NAMED 1892-02-11 18:00:00 TS -17.9000 56.3000 main 276 252 _________O____ -1 -17.9000 56.3000 TC 8 201
1892041S14059 1892 7 SI MM NOT_NAMED 1892-02-11 21:00:00 TS -18.2700 56.1425 main 249 221 _________P____ -1 -18.2700 56.1425 TC 9 200
1892041S14059 1892 7 SI MM NOT_NAMED 1892-02-12 00:00:00 TS -18.7000 56.0000 main 221 195 _________O____ -1 -18.7000 56.0000 TC 10 194
1892041S14059 1892 7 SI MM NOT_NAMED 1892-02-12 03:00:00 TS -19.2200 55.8924 main 195 134 _________P____ -1 -19.2200 55.8924 TC 11 190
1892041S14059 1892 7 SI MM NOT_NAMED 1892-02-12 06:00:00 TS -19.8000 55.8000 main 134 67 _________O____ -1 -19.8000 55.8000 TC 12 189
1892041S14059 1892 7 SI MM NOT_NAMED 1892-02-12 09:00:00 TS -20.4000 55.6925 main 67 0 _________P____ -1 -20.4000 55.6925 TC 12 189
1892041S14059 1892 7 SI MM NOT_NAMED 1892-02-12 12:00:00 TS -21.0000 55.6000 main 0 0 _________O____ -1 -21.0000 55.6000 TC 12 187
1892041S14059 1892 7 SI MM NOT_NAMED 1892-02-12 15:00:00 TS -21.5650 55.5275 main 24 24 _________P____ -1 -21.5650 55.5275 TC 11 185
1892041S14059 1892 7 SI MM NOT_NAMED 1892-02-12 18:00:00 TS -22.1000 55.5000 main 78 78 _________O____ -1 -22.1000 55.5000 TC 10 181
1892041S14059 1892 7 SI MM NOT_NAMED 1892-02-12 21:00:00 TS -22.5850 55.5275 main 134 134 _________P____ -1 -22.5850 55.5275 TC 10 175
1892041S14059 1892 7 SI MM NOT_NAMED 1892-02-13 00:00:00 TS -23.1000 55.6000 main 190 190 _________O____ -1 -23.1000 55.6000 TC 12 173
1892041S14059 1892 7 SI MM NOT_NAMED 1892-02-13 03:00:00 TS -23.7275 55.6851 main 257 257 _________P____ -1 -23.7275 55.6851 TC 13 172
1892041S14059 1892 7 SI MM NOT_NAMED 1892-02-13 06:00:00 TS -24.4000 55.8000 main 335 335 _________O____ -1 -24.4000 55.8000 TC 14 170
1892041S14059 1892 7 SI MM NOT_NAMED 1892-02-13 09:00:00 TS -25.0575 55.9351 main 414 414 _________P____ -1 -25.0575 55.9351 TC 13 168
1892041S14059 1892 7 SI MM NOT_NAMED 1892-02-13 12:00:00 TS -25.7000 56.1000 main 483 483 _________O____ -1 -25.7000 56.1000 TC 13 166
1892041S14059 1892 7 SI MM NOT_NAMED 1892-02-13 15:00:00 TS -26.3075 56.2926 main 552 552 _________P____ -1 -26.3075 56.2926 TC 13 163
1892041S14059 1892 7 SI MM NOT_NAMED 1892-02-13 18:00:00 TS -26.9000 56.5000 main 621 621 _________O____ -1 -26.9000 56.5000 TC 13 163
1892041S14059 1892 7 SI MM NOT_NAMED 1892-02-13 21:00:00 TS -27.4975 56.7021 main 690 690 _________P____ -1 -27.4975 56.7021 TC 13 164
1892041S14059 1892 7 SI MM NOT_NAMED 1892-02-14 00:00:00 TS -28.1000 56.9000 main 760 _________O____ -1 -28.1000 56.9000 TC 13 164

About IBTrACS Database

This database is a web-friendly format of International Best Track Archive for Climate Stewardship (IBTrACS), a global best track data archive curated by NOAA dating back to 1842.

Updated: 2021-11-26